Terminal Aerodrome Forecast
Issued by NWS Sterling, VA

Current Version | Previous Version | Graphics & Text | Print | Product List | Glossary On
Versions: 1 2 3 4 5 6 7 8 9 10 11 12 13 14 15 16 17 18 19 20
686
FTUS41 KLWX 162340
TAFMRB
TAF
KMRB 162340Z 1700/1724 VRB03KT P6SM FEW045 SCT150
     FM170600 00000KT 3SM BR FEW040 SCT150
     FM170800 00000KT 2SM BR FEW040 SCT130
     FM171200 00000KT 2SM BR BKN025 BKN040
     FM171500 VRB03KT P6SM SCT040 BKN100
     FM172200 09005KT P6SM FEW045 SCT130=

USA.gov is the U.S. government's official web portal to all federal, state and local government web resources and services.